Time;durP1;ratioP1;P1;durP2;ratioP2;P2;SDS_P1;SDS_P2;PMS_P1;PMS_P2;Temp;Humidity;BMP_temperature;BMP_pressure;BME280_temperature;BME280_humidity;BME280_pressure;Samples;Min_cycle;Max_cycle;Signal;HPM_P1;HPM_P2
2023/11/03 00:02:22;;;;;;;36.00;15.30;;;;;;;9.64;92.83;93073.44;5042793;28;20029;-73
2023/11/03 00:04:47;;;;;;;32.40;15.45;;;;;;;9.66;92.55;93064.38;5042742;28;20227;-73
2023/11/03 00:07:14;;;;;;;31.80;12.43;;;;;;;9.61;91.58;93068.03;5042700;28;20028;-74
2023/11/03 00:09:40;;;;;;;23.10;11.65;;;;;;;9.56;91.45;93060.22;5042423;28;20101;-72
2023/11/03 00:12:06;;;;;;;24.25;12.20;;;;;;;9.58;91.92;93060.69;5042704;28;20044;-72
2023/11/03 00:14:32;;;;;;;30.10;11.60;;;;;;;9.58;91.88;93042.06;5042713;28;20215;-72
2023/11/03 00:16:59;;;;;;;25.67;12.35;;;;;;;9.66;91.14;93053.72;5042348;28;20044;-72
2023/11/03 00:19:25;;;;;;;23.65;12.20;;;;;;;9.66;90.56;93035.88;5042571;28;20025;-73
2023/11/03 00:21:51;;;;;;;29.00;14.05;;;;;;;9.66;90.89;93057.16;5042672;28;20036;-72
2023/11/03 00:24:17;;;;;;;22.55;12.00;;;;;;;9.68;90.24;93054.94;5041517;28;20029;-72
2023/11/03 00:26:44;;;;;;;24.48;11.48;;;;;;;9.67;90.33;93044.63;5042245;28;20021;-72
2023/11/03 00:29:10;;;;;;;20.85;11.88;;;;;;;9.64;90.54;93038.09;5042269;28;20029;-71
2023/11/03 00:31:37;;;;;;;26.65;13.23;;;;;;;9.67;90.15;93048.09;5045381;28;20032;-71
2023/11/03 00:34:05;;;;;;;24.15;12.38;;;;;;;9.76;89.30;93061.31;5046482;28;20026;-72
2023/11/03 00:36:31;;;;;;;23.70;12.82;;;;;;;9.73;89.40;93070.72;5045511;28;20056;-73
2023/11/03 00:38:58;;;;;;;28.60;14.82;;;;;;;9.71;90.27;93072.94;5045214;28;20021;-73
2023/11/03 00:41:23;;;;;;;26.08;13.15;;;;;;;9.72;89.88;93073.72;5045051;28;20025;-73
2023/11/03 00:43:50;;;;;;;25.92;12.68;;;;;;;9.11;93.06;93076.81;5045711;28;20067;-73
2023/11/03 00:46:17;;;;;;;29.35;13.50;;;;;;;9.19;93.37;93081.28;5046351;28;20029;-72
2023/11/03 00:48:42;;;;;;;30.08;15.07;;;;;;;9.12;94.27;93076.50;5046309;28;20013;-73
2023/11/03 00:51:08;;;;;;;37.67;17.33;;;;;;;9.14;95.40;93079.63;5046263;28;20044;-73
2023/11/03 00:53:37;;;;;;;42.72;20.17;;;;;;;9.22;95.50;93062.06;5045966;28;20021;-73
2023/11/03 00:56:04;;;;;;;47.97;19.90;;;;;;;9.21;95.63;93061.25;5045878;28;20030;-73
2023/11/03 00:58:30;;;;;;;40.15;20.08;;;;;;;9.23;95.37;93067.03;5045714;28;20037;-74
2023/11/03 01:00:56;;;;;;;43.15;20.42;;;;;;;9.26;95.33;93083.44;5046092;28;20041;-73
2023/11/03 01:03:23;;;;;;;55.55;21.52;;;;;;;9.18;95.97;93088.50;5046165;28;20017;-74
2023/11/03 01:05:49;;;;;;;37.83;18.35;;;;;;;9.26;94.10;93078.91;5044734;28;20308;-73
2023/11/03 01:08:14;;;;;;;36.55;18.42;;;;;;;9.25;92.81;93061.41;5045697;28;20017;-73
2023/11/03 01:10:40;;;;;;;41.55;19.35;;;;;;;9.14;93.32;93044.25;5061318;28;20037;-74
2023/11/03 01:13:10;;;;;;;35.40;16.58;;;;;;;9.20;93.22;93054.41;5045686;28;20068;-74
2023/11/03 01:15:39;;;;;;;41.05;20.25;;;;;;;9.19;92.46;93071.44;5045638;28;20331;-74
2023/11/03 01:18:05;;;;;;;37.33;19.35;;;;;;;9.19;92.16;93083.97;5045790;28;20201;-74
2023/11/03 01:20:31;;;;;;;38.88;18.45;;;;;;;9.19;92.20;93099.91;5045733;28;20032;-74
2023/11/03 01:22:58;;;;;;;44.15;19.42;;;;;;;9.21;91.88;93108.34;5045742;28;20037;-74
2023/11/03 01:25:24;;;;;;;44.67;19.60;;;;;;;9.17;92.19;93113.53;5045666;28;20021;-74
2023/11/03 01:27:51;;;;;;;40.35;18.80;;;;;;;9.06;94.59;93107.03;5045786;28;20032;-73
2023/11/03 01:30:19;;;;;;;45.22;22.48;;;;;;;9.02;95.90;93090.94;5045611;28;20017;-72
2023/11/03 01:32:44;;;;;;;47.45;22.65;;;;;;;9.03;96.27;93097.78;5045567;28;20053;-72
2023/11/03 01:35:10;;;;;;;55.15;23.20;;;;;;;9.02;96.83;93106.88;5045381;28;20213;-72
2023/11/03 01:37:36;;;;;;;47.22;21.13;;;;;;;9.08;96.96;93104.03;5045293;28;20029;-72
2023/11/03 01:40:07;;;;;;;43.42;21.23;;;;;;;9.13;96.88;93106.50;5045346;28;20083;-72
2023/11/03 01:42:34;;;;;;;43.53;20.58;;;;;;;9.17;97.00;93088.81;5042716;28;20028;-72
2023/11/03 01:45:00;;;;;;;41.45;20.70;;;;;;;9.19;96.50;93102.56;5043976;28;20242;-71
2023/11/03 01:47:25;;;;;;;39.90;18.38;;;;;;;9.20;95.59;93101.47;5045232;28;20048;-70
2023/11/03 01:49:51;;;;;;;34.22;18.60;;;;;;;9.28;94.31;93102.50;5045021;28;20034;-71
2023/11/03 01:52:16;;;;;;;38.00;18.80;;;;;;;9.24;94.47;93075.81;5045202;28;20029;-71
2023/11/03 01:54:42;;;;;;;47.22;21.23;;;;;;;9.23;94.47;93074.22;5045044;28;20327;-71
2023/11/03 01:57:09;;;;;;;45.63;18.50;;;;;;;9.28;93.38;93071.41;5044725;28;20277;-71
2023/11/03 01:59:34;;;;;;;44.90;18.65;;;;;;;9.25;93.32;93061.41;5044689;28;20045;-71
2023/11/03 02:02:00;;;;;;;42.60;19.58;;;;;;;9.30;92.95;93079.84;5044625;28;20032;-71
2023/11/03 02:04:26;;;;;;;37.13;18.88;;;;;;;9.31;92.75;93076.06;5044764;28;20444;-72
2023/11/03 02:06:51;;;;;;;33.20;17.52;;;;;;;9.29;92.52;93072.94;5044832;28;20024;-71
2023/11/03 02:09:17;;;;;;;36.55;17.50;;;;;;;9.35;91.07;93061.00;5044784;28;20036;-71
2023/11/03 02:11:43;;;;;;;40.92;18.85;;;;;;;9.28;91.25;93028.84;5044623;28;20025;-71
2023/11/03 02:14:09;;;;;;;34.92;17.98;;;;;;;9.29;91.16;93025.06;5044726;28;20021;-73
2023/11/03 02:16:35;;;;;;;34.70;18.85;;;;;;;9.25;92.02;93050.75;5044327;28;20071;-73
2023/11/03 02:19:03;;;;;;;43.17;18.83;;;;;;;9.20;93.01;93040.34;5044386;28;20132;-73
2023/11/03 02:21:35;;;;;;;32.85;18.45;;;;;;;9.23;94.22;93042.31;5044539;28;20219;-72
2023/11/03 02:24:00;;;;;;;41.08;18.13;;;;;;;9.23;93.55;93044.97;5044421;28;20097;-73
2023/11/03 02:26:25;;;;;;;35.97;17.15;;;;;;;9.22;94.28;93036.25;5044414;28;20017;-73
2023/11/03 02:28:51;;;;;;;39.65;19.73;;;;;;;9.14;94.83;93013.16;5044257;28;20223;-73
2023/11/03 02:31:17;;;;;;;40.33;20.50;;;;;;;9.27;95.61;93015.88;5044224;28;20040;-72
2023/11/03 02:33:42;;;;;;;40.45;20.35;;;;;;;9.35;95.48;93015.78;5044197;28;20017;-72
2023/11/03 02:36:09;;;;;;;42.13;18.42;;;;;;;9.42;94.28;93026.69;5044317;28;20224;-72
2023/11/03 02:38:34;;;;;;;41.58;19.15;;;;;;;9.46;93.06;93036.69;5044271;28;20028;-72
2023/11/03 02:41:00;;;;;;;41.25;18.30;;;;;;;9.50;92.70;93018.97;5044063;28;20033;-72
2023/11/03 02:43:25;;;;;;;36.00;17.52;;;;;;;9.51;91.96;93036.50;5044013;28;20284;-72
2023/11/03 02:45:50;;;;;;;33.20;17.42;;;;;;;9.37;92.75;93040.19;5044099;28;20033;-72
2023/11/03 02:48:16;;;;;;;39.30;19.17;;;;;;;9.27;94.56;93040.56;5043879;28;20216;-72
2023/11/03 02:50:42;;;;;;;49.42;20.33;;;;;;;9.25;94.77;93024.16;5043759;28;20029;-72
2023/11/03 02:53:07;;;;;;;44.33;20.77;;;;;;;9.20;95.40;93037.66;5043408;28;20036;-72
2023/11/03 02:55:35;;;;;;;38.85;20.55;;;;;;;9.18;96.33;93031.88;5043858;28;20036;-72
2023/11/03 02:58:01;;;;;;;45.45;23.02;;;;;;;9.26;96.42;93041.69;5043538;28;20029;-71
2023/11/03 03:00:28;;;;;;;49.85;24.88;;;;;;;9.30;96.67;93037.28;5043767;28;20017;-72
2023/11/03 03:02:53;;;;;;;51.60;24.33;;;;;;;9.37;97.14;93013.59;5043602;28;20044;-72
2023/11/03 03:05:19;;;;;;;42.75;21.88;;;;;;;9.46;97.14;93034.00;5043642;28;20021;-73
2023/11/03 03:07:46;;;;;;;43.90;21.50;;;;;;;9.50;96.50;93029.59;5043673;28;20021;-72
2023/11/03 03:10:12;;;;;;;50.15;22.58;;;;;;;9.54;96.64;93027.84;5043556;28;20052;-73
2023/11/03 03:12:38;;;;;;;46.60;21.55;;;;;;;9.65;95.62;93021.03;5043466;28;20017;-71
2023/11/03 03:15:03;;;;;;;42.80;21.63;;;;;;;9.67;95.44;93012.69;5043439;28;20051;-71
2023/11/03 03:17:30;;;;;;;44.70;21.35;;;;;;;9.72;95.02;93013.28;5043424;28;20027;-72
2023/11/03 03:19:55;;;;;;;44.22;21.23;;;;;;;9.78;93.59;93035.16;5043361;28;20021;-71
2023/11/03 03:22:21;;;;;;;45.30;21.95;;;;;;;9.78;93.03;93016.53;5043281;28;20359;-71
2023/11/03 03:24:48;;;;;;;52.97;23.77;;;;;;;9.72;93.53;93025.81;5043291;28;20059;-72
2023/11/03 03:27:13;;;;;;;47.42;24.05;;;;;;;9.73;93.17;93016.72;5043238;28;20025;-71
2023/11/03 03:29:38;;;;;;;42.33;21.27;;;;;;;9.73;92.73;93001.53;5043166;28;20354;-71
2023/11/03 03:32:04;;;;;;;40.45;21.77;;;;;;;9.42;95.03;93013.41;5042015;28;20032;-71
2023/11/03 03:34:31;;;;;;;49.30;23.30;;;;;;;9.48;94.72;93026.50;5043168;28;20323;-71
2023/11/03 03:36:56;;;;;;;43.95;22.77;;;;;;;9.46;95.43;93018.06;5043004;28;20033;-71
2023/11/03 03:39:21;;;;;;;50.50;23.00;;;;;;;9.48;95.70;93016.63;5043012;28;20032;-71
2023/11/03 03:41:51;;;;;;;43.33;22.23;;;;;;;9.57;95.13;93035.97;5043191;28;20324;-71
2023/11/03 03:44:17;;;;;;;45.92;22.92;;;;;;;9.61;94.95;93044.06;5043071;28;20227;-71
2023/11/03 03:46:42;;;;;;;50.88;22.88;;;;;;;9.64;93.42;93046.84;5042909;28;20022;-71
2023/11/03 03:49:08;;;;;;;49.65;23.10;;;;;;;9.64;93.27;93024.78;5041883;28;20052;-72
2023/11/03 03:51:33;;;;;;;52.88;22.98;;;;;;;9.65;93.48;93015.72;5043019;28;20032;-72
2023/11/03 03:53:59;;;;;;;47.95;21.58;;;;;;;9.72;92.79;93004.53;5042612;28;20323;-72
2023/11/03 03:56:25;;;;;;;52.20;22.70;;;;;;;9.68;93.26;92999.06;5042760;28;20034;-72
2023/11/03 03:58:52;;;;;;;56.17;25.10;;;;;;;9.66;93.58;92977.34;5042833;28;20275;-72
2023/11/03 04:01:18;;;;;;;52.70;24.38;;;;;;;9.66;93.84;92985.31;5042954;28;20341;-72
2023/11/03 04:03:43;;;;;;;55.72;25.10;;;;;;;9.68;93.83;92985.78;5042838;28;20025;-72
2023/11/03 04:06:12;;;;;;;45.05;23.63;;;;;;;9.72;93.79;92970.72;5042063;28;20094;-72
2023/11/03 04:08:37;;;;;;;44.08;22.33;;;;;;;9.76;92.98;92979.59;5042869;28;20045;-72
2023/11/03 04:11:03;;;;;;;52.53;23.60;;;;;;;9.78;92.21;92960.63;5042535;28;20022;-72
2023/11/03 04:13:29;;;;;;;47.47;23.20;;;;;;;9.77;91.64;92965.19;5042680;28;20248;-72
2023/11/03 04:15:54;;;;;;;45.40;21.40;;;;;;;9.72;91.98;92948.66;5042553;28;20047;-72
2023/11/03 04:18:21;;;;;;;45.85;23.30;;;;;;;9.75;92.08;92951.44;5042676;28;20017;-72
2023/11/03 04:20:46;;;;;;;45.10;22.33;;;;;;;9.77;91.73;92943.09;5042829;28;20028;-73
2023/11/03 04:23:13;;;;;;;47.38;21.25;;;;;;;9.69;91.92;92955.41;5042630;28;20025;-73
2023/11/03 04:25:39;;;;;;;46.25;22.52;;;;;;;9.73;92.02;92945.66;5042433;28;20021;-73
2023/11/03 04:28:09;;;;;;;40.90;21.13;;;;;;;9.79;91.46;92940.88;5042392;28;20024;-72
2023/11/03 04:30:35;;;;;;;42.63;21.65;;;;;;;9.79;91.05;92933.69;5042589;28;20044;-73
2023/11/03 04:33:04;;;;;;;37.30;19.35;;;;;;;9.81;90.61;92952.78;5042486;28;20035;-73
2023/11/03 04:35:29;;;;;;;48.20;22.73;;;;;;;9.73;91.04;92958.16;5042535;28;20262;-73
2023/11/03 04:37:55;;;;;;;46.75;20.98;;;;;;;9.75;91.42;92967.41;5042474;28;20026;-73
2023/11/03 04:40:21;;;;;;;55.00;24.40;;;;;;;9.79;92.05;92967.50;5042577;28;20200;-72
2023/11/03 04:42:49;;;;;;;58.88;23.30;;;;;;;9.74;92.10;92971.16;5042407;28;20039;-72
2023/11/03 04:45:16;;;;;;;33.58;17.80;;;;;;;9.74;91.92;92984.47;5042302;28;20304;-72
2023/11/03 04:47:41;;;;;;;34.92;17.40;;;;;;;9.71;92.07;92984.34;5042419;28;20239;-72
2023/11/03 04:50:10;;;;;;;40.58;18.63;;;;;;;9.64;92.17;92967.03;5042393;28;20092;-72
2023/11/03 04:52:36;;;;;;;41.63;19.58;;;;;;;9.72;92.15;92969.94;5042232;28;20033;-73
2023/11/03 04:55:01;;;;;;;44.85;19.42;;;;;;;9.79;91.53;92968.31;5042267;28;20013;-72
2023/11/03 04:57:27;;;;;;;36.75;18.50;;;;;;;9.84;91.28;92965.41;5041914;28;20021;-73
2023/11/03 04:59:53;;;;;;;35.83;16.77;;;;;;;9.85;90.95;92966.22;5042127;28;20144;-73
2023/11/03 05:02:19;;;;;;;36.00;17.25;;;;;;;9.82;91.16;92958.88;5042354;28;20013;-72
2023/11/03 05:04:44;;;;;;;36.40;16.25;;;;;;;9.86;90.82;92945.69;5042293;28;20219;-72
2023/11/03 05:07:10;;;;;;;34.05;15.95;;;;;;;9.86;90.48;92937.72;5042095;28;20025;-72
2023/11/03 05:09:36;;;;;;;29.63;15.73;;;;;;;9.88;90.40;92924.84;5042022;28;20096;-72
2023/11/03 05:12:03;;;;;;;34.35;16.13;;;;;;;9.90;90.55;92941.25;5041920;28;20596;-71
2023/11/03 05:14:32;;;;;;;27.92;15.57;;;;;;;9.90;90.62;92927.94;5041995;28;20022;-72
2023/11/03 05:16:57;;;;;;;52.67;18.42;;;;;;;9.97;90.37;92946.78;5043513;28;20026;-71
2023/11/03 05:19:24;;;;;;;49.95;20.25;;;;;;;10.00;90.15;92935.50;5045582;28;20049;-71
2023/11/03 05:21:50;;;;;;;41.97;19.23;;;;;;;9.99;89.86;92924.09;5045693;28;20057;-71
2023/11/03 05:24:15;;;;;;;41.92;19.13;;;;;;;9.95;89.74;92903.75;5045449;28;20025;-72
2023/11/03 05:26:41;;;;;;;41.28;19.42;;;;;;;9.91;90.48;92903.66;5045423;28;20026;-72
2023/11/03 05:29:07;;;;;;;38.88;18.35;;;;;;;9.92;90.76;92918.53;5045144;28;20028;-72
2023/11/03 05:31:33;;;;;;;40.10;18.83;;;;;;;9.92;90.49;92923.06;5045536;28;20021;-72
2023/11/03 05:34:01;;;;;;;35.53;16.58;;;;;;;9.93;90.36;92916.63;5045390;28;20311;-71
2023/11/03 05:36:26;;;;;;;34.08;16.65;;;;;;;9.89;90.64;92895.25;5045105;28;20063;-71
2023/11/03 05:38:51;;;;;;;36.65;17.92;;;;;;;9.94;90.99;92904.88;5045213;28;20018;-71
2023/11/03 05:41:17;;;;;;;38.35;18.67;;;;;;;9.98;91.18;92900.44;5045284;28;20197;-71
2023/11/03 05:43:42;;;;;;;41.03;20.48;;;;;;;9.95;91.44;92885.94;5045089;28;20037;-71
2023/11/03 05:46:07;;;;;;;45.92;20.35;;;;;;;9.98;91.71;92890.56;5045042;28;20096;-71
2023/11/03 05:48:33;;;;;;;36.92;18.48;;;;;;;9.96;91.82;92900.00;5045077;28;20030;-71
2023/11/03 05:50:58;;;;;;;41.70;20.48;;;;;;;10.01;91.82;92891.78;5044949;28;20029;-71
2023/11/03 05:53:24;;;;;;;43.22;19.73;;;;;;;10.08;91.98;92900.00;5044965;28;20021;-72
2023/11/03 05:55:49;;;;;;;39.03;17.65;;;;;;;10.12;91.60;92887.59;5045072;28;20311;-72
2023/11/03 05:58:15;;;;;;;36.42;17.98;;;;;;;10.15;91.71;92889.56;5044896;28;20378;-72
2023/11/03 06:00:40;;;;;;;45.13;18.10;;;;;;;10.22;91.14;92889.81;5044702;28;20327;-72
2023/11/03 06:03:06;;;;;;;35.33;17.25;;;;;;;10.28;90.95;92894.88;5044617;28;20037;-72
2023/11/03 06:05:31;;;;;;;40.13;15.85;;;;;;;10.39;90.82;92888.03;5044860;28;20024;-72
2023/11/03 06:07:57;;;;;;;49.58;18.92;;;;;;;10.46;90.02;92888.22;5044748;28;20063;-72
2023/11/03 06:10:22;;;;;;;54.72;21.00;;;;;;;10.50;88.97;92880.34;5044792;28;20024;-72
2023/11/03 06:12:47;;;;;;;52.83;23.98;;;;;;;10.46;89.21;92885.56;5044706;28;20036;-73
2023/11/03 06:15:13;;;;;;;50.33;21.80;;;;;;;10.38;89.45;92908.59;5044554;28;20025;-72
2023/11/03 06:17:39;;;;;;;46.85;20.27;;;;;;;10.38;89.84;92895.25;5044188;28;20028;-72
2023/11/03 06:20:05;;;;;;;47.80;20.88;;;;;;;10.36;89.82;92897.47;5044477;28;20029;-72
2023/11/03 06:22:31;;;;;;;49.75;20.48;;;;;;;10.33;90.02;92900.03;5044406;28;20118;-72
2023/11/03 06:24:57;;;;;;;49.28;21.27;;;;;;;10.30;90.42;92892.69;5044466;28;20029;-72
2023/11/03 06:27:22;;;;;;;46.22;22.27;;;;;;;10.25;90.88;92891.78;5044497;28;20193;-72
2023/11/03 06:29:48;;;;;;;55.42;21.65;;;;;;;10.22;91.43;92887.13;5043827;28;20034;-72
2023/11/03 06:32:13;;;;;;;57.35;23.17;;;;;;;10.20;91.82;92880.59;5044340;28;20262;-72
2023/11/03 06:34:39;;;;;;;54.35;22.23;;;;;;;10.21;92.43;92880.25;5044078;28;20028;-71
2023/11/03 06:37:05;;;;;;;51.63;24.02;;;;;;;10.34;92.40;92874.94;5043883;28;20072;-70
2023/11/03 06:39:31;;;;;;;46.75;21.88;;;;;;;10.49;91.82;92866.25;5044177;28;20136;-72
2023/11/03 06:41:56;;;;;;;53.97;21.50;;;;;;;10.58;91.29;92860.81;5044073;28;20025;-72
2023/11/03 06:44:23;;;;;;;50.40;22.02;;;;;;;10.69;90.25;92869.13;5043928;28;20092;-71
2023/11/03 06:46:49;;;;;;;43.00;20.40;;;;;;;10.71;90.08;92866.91;5044094;28;20351;-72
2023/11/03 06:49:14;;;;;;;37.03;18.98;;;;;;;10.75;89.72;92857.88;5043825;28;20025;-71
2023/11/03 06:51:46;;;;;;;42.72;19.75;;;;;;;10.87;89.24;92875.72;5043773;28;20334;-73
2023/11/03 06:54:11;;;;;;;39.95;20.10;;;;;;;10.95;89.27;92880.16;5043841;28;20033;-72
2023/11/03 06:56:37;;;;;;;41.00;17.40;;;;;;;11.03;88.96;92871.22;5043798;28;20039;-72
2023/11/03 06:59:03;;;;;;;40.65;20.80;;;;;;;11.12;89.12;92883.63;5042355;28;20259;-71
2023/11/03 07:01:29;;;;;;;41.67;19.48;;;;;;;11.25;88.73;92874.44;5043664;28;20072;-72
2023/11/03 07:03:54;;;;;;;45.33;18.30;;;;;;;11.27;89.06;92885.56;5043579;28;20033;-73
2023/11/03 07:06:20;;;;;;;45.75;20.88;;;;;;;11.23;89.25;92856.16;5043950;28;20028;-73
2023/11/03 07:08:47;;;;;;;48.28;21.70;;;;;;;11.27;88.87;92866.13;5043467;28;20021;-72
2023/11/03 07:11:12;;;;;;;53.20;20.40;;;;;;;11.33;88.99;92854.09;5043549;28;20320;-72
2023/11/03 07:13:38;;;;;;;52.65;22.27;;;;;;;11.30;89.31;92844.88;5043361;28;20026;-73
2023/11/03 07:16:04;;;;;;;61.83;23.33;;;;;;;11.50;89.34;92842.31;5043371;28;20029;-72
2023/11/03 07:18:30;;;;;;;53.55;24.92;;;;;;;11.68;89.42;92832.06;5043288;28;20075;-72
2023/11/03 07:20:56;;;;;;;39.45;21.55;;;;;;;11.78;88.22;92839.56;5043484;28;20053;-70
2023/11/03 07:23:21;;;;;;;41.17;19.52;;;;;;;11.65;87.99;92853.00;5043539;28;20187;-70
2023/11/03 07:25:50;;;;;;;41.33;19.27;;;;;;;11.72;88.51;92833.72;5043736;28;20025;-71
2023/11/03 07:28:18;;;;;;;36.97;18.80;;;;;;;11.83;89.61;92839.31;5043588;28;20028;-71
2023/11/03 07:30:43;;;;;;;42.85;17.58;;;;;;;11.87;89.65;92839.41;5043557;28;20220;-70
2023/11/03 07:33:10;;;;;;;33.10;17.08;;;;;;;11.91;88.73;92842.97;5043095;28;20017;-69
2023/11/03 07:35:36;;;;;;;47.88;20.40;;;;;;;11.97;88.91;92860.28;5043059;28;20032;-70
2023/11/03 07:38:03;;;;;;;56.03;23.30;;;;;;;11.99;88.95;92853.47;5043307;28;20029;-70
2023/11/03 07:40:29;;;;;;;57.15;25.15;;;;;;;11.95;88.33;92852.59;5043140;28;20092;-70
2023/11/03 07:42:55;;;;;;;52.63;24.30;;;;;;;11.91;87.95;92861.66;5043035;28;20033;-69
2023/11/03 07:45:23;;;;;;;48.53;23.98;;;;;;;11.83;88.21;92856.09;5043319;28;20246;-70
2023/11/03 07:47:51;;;;;;;57.90;26.65;;;;;;;11.78;88.97;92851.00;5043109;28;20025;-70
2023/11/03 07:50:19;;;;;;;53.95;24.80;;;;;;;11.83;89.15;92860.69;5042876;28;20028;-69
2023/11/03 07:52:46;;;;;;;49.90;22.23;;;;;;;11.88;89.44;92854.28;5043362;28;20025;-70
2023/11/03 07:55:15;;;;;;;51.42;22.88;;;;;;;11.92;89.50;92841.84;5042955;28;20033;-71
2023/11/03 07:57:44;;;;;;;50.65;22.75;;;;;;;12.02;89.31;92833.31;5043017;28;20088;-71
2023/11/03 08:00:12;;;;;;;38.75;20.02;;;;;;;12.10;89.12;92847.59;5042838;28;20045;-71
2023/11/03 08:02:38;;;;;;;59.33;21.63;;;;;;;12.13;88.76;92828.19;5042534;28;20029;-71
2023/11/03 08:05:07;;;;;;;48.50;20.77;;;;;;;12.10;88.43;92831.56;5043101;28;21056;-71
2023/11/03 08:07:36;;;;;;;58.40;23.85;;;;;;;12.11;87.87;92820.53;5042869;28;20313;-71
2023/11/03 08:10:03;;;;;;;49.53;21.45;;;;;;;12.06;87.97;92828.81;5042797;28;20375;-71
2023/11/03 08:12:29;;;;;;;50.67;24.02;;;;;;;12.03;88.16;92838.28;5042751;28;20207;-71
2023/11/03 08:14:56;;;;;;;47.95;23.75;;;;;;;11.99;87.99;92856.13;5042476;28;20204;-79
2023/11/03 08:17:22;;;;;;;55.28;24.83;;;;;;;11.97;88.63;92836.25;5042738;28;20025;-80
2023/11/03 08:19:48;;;;;;;62.17;25.88;;;;;;;11.91;88.33;92846.41;5042845;28;20051;-79
2023/11/03 08:22:14;;;;;;;49.28;24.42;;;;;;;11.98;88.13;92833.22;5041639;28;20025;-80
2023/11/03 08:24:39;;;;;;;57.08;26.77;;;;;;;11.96;87.22;92834.69;5042529;28;20319;-79
2023/11/03 08:27:05;;;;;;;66.88;26.38;;;;;;;11.82;87.30;92817.19;5042722;28;20017;-79
2023/11/03 08:29:30;;;;;;;60.83;27.00;;;;;;;11.75;88.53;92849.03;5042847;28;20116;-80
2023/11/03 08:31:56;;;;;;;56.50;26.83;;;;;;;11.63;88.55;92831.22;5042819;28;20029;-79
2023/11/03 08:34:21;;;;;;;50.60;25.10;;;;;;;11.56;88.91;92831.06;5041462;28;20327;-79
2023/11/03 08:36:46;;;;;;;59.15;25.13;;;;;;;11.53;89.40;92830.97;5042562;28;20024;-78
2023/11/03 08:39:12;;;;;;;56.17;26.27;;;;;;;11.54;89.74;92827.16;5042675;28;20193;-79
2023/11/03 08:41:39;;;;;;;66.60;26.13;;;;;;;11.52;89.50;92832.84;5042507;28;20017;-79
2023/11/03 08:44:05;;;;;;;51.10;25.02;;;;;;;11.52;90.11;92832.84;5042381;28;20257;-79
2023/11/03 08:46:30;;;;;;;50.30;24.65;;;;;;;11.45;89.87;92835.34;5041150;28;20017;-78
2023/11/03 08:48:56;;;;;;;55.83;23.83;;;;;;;11.47;89.89;92816.31;5042470;28;20025;-82
2023/11/03 08:51:23;;;;;;;49.92;23.15;;;;;;;11.56;89.70;92809.72;5043381;28;20013;-81
2023/11/03 08:53:49;;;;;;;51.55;23.92;;;;;;;11.58;89.32;92820.81;5046727;28;20021;-79
2023/11/03 08:56:14;;;;;;;45.00;22.40;;;;;;;11.66;89.53;92824.41;5046401;28;20025;-81
2023/11/03 08:58:40;;;;;;;49.17;23.02;;;;;;;11.78;89.15;92832.31;5046158;28;20085;-82
2023/11/03 09:01:07;;;;;;;46.13;23.42;;;;;;;11.89;89.00;92826.53;5046277;28;20025;-82
2023/11/03 09:03:34;;;;;;;54.00;23.73;;;;;;;11.95;88.73;92838.50;5061486;28;20025;-81
2023/11/03 09:05:59;;;;;;;46.13;22.83;;;;;;;11.95;88.34;92827.81;5045125;28;20029;-81
2023/11/03 09:08:25;;;;;;;50.60;21.65;;;;;;;12.12;88.27;92829.31;5046300;28;20377;-82
2023/11/03 09:10:51;;;;;;;48.78;23.75;;;;;;;12.24;87.31;92824.66;5046359;28;20044;-82
2023/11/03 09:13:16;;;;;;;41.10;21.67;;;;;;;12.39;87.92;92815.03;5062029;28;20025;-82
2023/11/03 09:15:47;;;;;;;40.45;21.67;;;;;;;12.59;87.30;92826.53;5044717;28;20327;-81
2023/11/03 09:18:12;;;;;;;41.65;21.40;;;;;;;12.83;87.12;92822.03;5045277;28;20057;-81
2023/11/03 09:20:38;;;;;;;44.75;20.73;;;;;;;13.08;85.26;92805.72;5046013;28;20029;-81
2023/11/03 09:23:06;;;;;;;41.50;19.58;;;;;;;13.28;81.87;92801.88;5044791;28;20025;-80
2023/11/03 09:25:32;;;;;;;37.92;21.27;;;;;;;13.43;81.68;92802.91;5045549;28;20029;-80
2023/11/03 09:27:58;;;;;;;48.20;22.02;;;;;;;13.46;82.54;92812.16;5045386;28;20100;-80
2023/11/03 09:30:24;;;;;;;43.83;21.23;;;;;;;13.54;81.53;92795.09;5045598;28;20111;-80
2023/11/03 09:32:49;;;;;;;43.40;21.60;;;;;;;13.62;81.00;92794.84;5045856;28;20332;-81
2023/11/03 09:35:14;;;;;;;41.28;19.80;;;;;;;13.77;80.75;92776.31;5045431;28;20037;-82
2023/11/03 09:37:40;;;;;;;37.88;19.65;;;;;;;13.92;81.41;92762.03;5045380;28;20383;-82
2023/11/03 09:40:07;;;;;;;36.83;18.63;;;;;;;14.01;80.47;92740.34;5045447;28;20029;-82
2023/11/03 09:42:34;;;;;;;46.28;19.55;;;;;;;14.14;79.36;92759.63;5044121;28;20036;-85
2023/11/03 09:45:26;;;;;;;45.17;18.77;;;;;;;14.21;79.09;92749.78;5045399;28;20021;-82
2023/11/03 09:47:55;;;;;;;39.75;19.45;;;;;;;14.28;78.96;92727.66;5045230;28;20025;-80
2023/11/03 09:50:21;;;;;;;41.70;19.42;;;;;;;14.37;78.88;92722.03;5045321;28;20025;-79
2023/11/03 09:52:49;;;;;;;39.97;18.90;;;;;;;14.58;77.71;92721.56;5045198;28;20029;-80
2023/11/03 09:55:21;;;;;;;39.33;18.10;;;;;;;14.82;75.57;92713.03;5045059;28;20032;-80
2023/11/03 09:57:57;;;;;;;37.25;16.08;;;;;;;14.97;75.08;92713.94;5045125;28;20100;-79
2023/11/03 10:00:23;;;;;;;32.40;13.93;;;;;;;15.03;74.30;92674.13;5045142;28;20316;-80
2023/11/03 10:02:49;;;;;;;28.60;14.23;;;;;;;15.15;72.03;92683.81;5044164;28;20148;-80
2023/11/03 10:05:16;;;;;;;28.20;13.25;;;;;;;15.32;72.50;92690.47;5044756;28;20021;-83
2023/11/03 10:07:54;;;;;;;26.73;14.48;;;;;;;15.40;70.98;92708.94;5045000;28;20082;-80
2023/11/03 10:10:20;;;;;;;30.30;12.52;;;;;;;15.49;69.91;92675.66;5043890;28;20323;-80
2023/11/03 10:12:45;;;;;;;31.90;14.13;;;;;;;15.52;69.31;92689.09;5044765;28;20021;-80
2023/11/03 10:15:12;;;;;;;22.40;11.98;;;;;;;15.49;68.27;92697.13;5044402;28;20258;-79
2023/11/03 10:17:38;;;;;;;24.33;11.75;;;;;;;15.55;68.85;92647.31;5044419;28;20036;-79
2023/11/03 10:20:06;;;;;;;23.38;12.90;;;;;;;15.70;69.09;92654.31;5044644;28;20033;-79
2023/11/03 10:22:31;;;;;;;24.92;11.60;;;;;;;15.73;69.16;92667.03;5044435;28;20021;-77
2023/11/03 10:24:57;;;;;;;22.92;11.43;;;;;;;15.84;68.68;92646.38;5044675;28;20067;-77
2023/11/03 10:27:23;;;;;;;20.30;11.02;;;;;;;15.95;67.72;92648.34;5043359;28;20045;-75
2023/11/03 10:29:51;;;;;;;24.10;10.95;;;;;;;15.79;67.97;92654.81;5044426;28;20024;-75
2023/11/03 10:32:18;;;;;;;26.45;11.77;;;;;;;15.90;67.70;92664.84;5044551;28;20029;-75
2023/11/03 10:34:48;;;;;;;18.92;10.18;;;;;;;15.88;67.15;92664.44;5044171;28;20025;-74
2023/11/03 10:37:15;;;;;;;19.45;10.40;;;;;;;16.04;66.78;92638.81;5044162;28;20029;-77
2023/11/03 10:39:40;;;;;;;19.60;10.48;;;;;;;16.25;67.19;92643.50;5044128;28;20227;-76
2023/11/03 10:42:09;;;;;;;17.35;9.27;;;;;;;16.48;65.58;92641.66;5044079;28;20097;-76
2023/11/03 10:44:35;;;;;;;15.40;9.35;;;;;;;16.64;65.54;92625.97;5044142;28;20105;-76
2023/11/03 10:47:10;;;;;;;18.25;9.60;;;;;;;16.80;63.15;92647.13;5043569;28;20017;-75
2023/11/03 10:49:40;;;;;;;22.65;9.80;;;;;;;16.83;63.92;92641.00;5043745;28;20025;-76
2023/11/03 10:52:49;;;;;;;24.88;11.32;;;;;;;16.89;63.66;92607.19;5043038;28;20271;-76
2023/11/03 10:55:25;;;;;;;21.23;10.82;;;;;;;16.90;64.39;92624.88;4999100;28;20145;-76
2023/11/03 10:57:52;;;;;;;21.50;9.80;;;;;;;16.80;63.80;92617.53;5000505;28;20030;-76
2023/11/03 11:00:31;;;;;;;16.60;9.95;;;;;;;16.82;64.26;92623.34;5023075;28;20125;-76
2023/11/03 11:03:24;;;;;;;24.30;11.10;;;;;;;16.81;64.65;92597.56;5041756;28;20044;-76
2023/11/03 11:05:57;;;;;;;17.55;9.68;;;;;;;16.91;64.46;92596.81;5042340;28;20048;-76
2023/11/03 11:08:26;;;;;;;18.10;10.10;;;;;;;17.09;63.07;92596.06;5043155;28;20312;-76
2023/11/03 11:10:51;;;;;;;21.90;9.68;;;;;;;17.20;63.41;92569.91;5042916;28;20410;-76
2023/11/03 11:13:21;;;;;;;16.50;9.15;;;;;;;17.41;62.21;92590.66;5043522;28;20021;-76
2023/11/03 11:15:55;;;;;;;19.27;9.55;;;;;;;17.60;61.45;92581.41;5041748;28;20025;-76
2023/11/03 11:18:21;;;;;;;15.35;8.25;;;;;;;17.80;60.53;92569.03;5042211;28;20025;-76
2023/11/03 11:21:02;;;;;;;13.95;7.88;;;;;;;17.95;58.35;92569.78;5043421;28;20088;-76